ASY456 NZWN-NZOH
Flight info
| Callsign | ASY456 |
|---|---|
| Flight time | 0h 12m |
| Altitude | 20000 |
| Route | NZOH/27 4022S17538E DOGAD PHOWD PENCW 412131S1744813E NZWN 411811S1744830E BAXOV Q235 AVKEX Q169 KAPTI OH |
| Aircraft | F35/M-SADILOTUV/C |
Departure
| Time | 2026-04-25 05:08 |
|---|---|
| Airport | Wellington International Airport (NZWN) |
Arrival
| Time | 2026-04-25 05:21 |
|---|---|
| Airport | RNZAF Base Ohakea (NZOH) |
| Time | Latitude | Longitude | Altitude | Speed | Heading |
|---|---|---|---|---|---|
| 2026-04-25 05:07 | -41.20102 | 174.27830 | 19195 ft | 451 kts | 173° |
| 2026-04-25 05:08 | -41.22810 | 174.29794 | 18373 ft | 450 kts | 129° |
| 2026-04-25 05:08 | -41.23515 | 174.33695 | 18270 ft | 462 kts | 80° |
| 2026-04-25 05:08 | -41.22156 | 174.37516 | 17640 ft | 456 kts | 50° |
| 2026-04-25 05:08 | -41.19833 | 174.40453 | 18089 ft | 446 kts | 41° |
| 2026-04-25 05:09 | -41.17389 | 174.43203 | 19569 ft | 479 kts | 41° |
| 2026-04-25 05:09 | -41.14856 | 174.46053 | 19851 ft | 479 kts | 41° |
| 2026-04-25 05:09 | -41.12350 | 174.48932 | 19922 ft | 476 kts | 42° |
| 2026-04-25 05:09 | -41.09873 | 174.51858 | 19968 ft | 476 kts | 43° |
| 2026-04-25 05:10 | -41.07434 | 174.54820 | 19985 ft | 477 kts | 44° |
| 2026-04-25 05:10 | -41.05026 | 174.57827 | 19991 ft | 475 kts | 45° |
| 2026-04-25 05:10 | -41.02652 | 174.60875 | 20107 ft | 476 kts | 45° |
| 2026-04-25 05:10 | -41.00295 | 174.63973 | 20201 ft | 477 kts | 45° |
| 2026-04-25 05:11 | -40.97799 | 174.66864 | 20238 ft | 478 kts | 39° |
| 2026-04-25 05:11 | -40.95108 | 174.69457 | 20246 ft | 479 kts | 36° |
| 2026-04-25 05:11 | -40.92413 | 174.72035 | 20258 ft | 478 kts | 37° |
| 2026-04-25 05:12 | -40.87103 | 174.77337 | 20263 ft | 478 kts | 39° |
| 2026-04-25 05:12 | -40.84491 | 174.80059 | 20264 ft | 479 kts | 39° |
| 2026-04-25 05:12 | -40.81910 | 174.82824 | 20271 ft | 477 kts | 40° |
| 2026-04-25 05:12 | -40.79340 | 174.85610 | 20277 ft | 479 kts | 39° |
| 2026-04-25 05:13 | -40.76702 | 174.88284 | 20269 ft | 477 kts | 37° |
| 2026-04-25 05:13 | -40.73991 | 174.90820 | 20269 ft | 479 kts | 35° |
| 2026-04-25 05:13 | -40.71207 | 174.93224 | 20268 ft | 478 kts | 34° |
| 2026-04-25 05:13 | -40.68427 | 174.95638 | 20271 ft | 479 kts | 34° |
| 2026-04-25 05:14 | -40.65674 | 174.98099 | 20271 ft | 478 kts | 36° |
| 2026-04-25 05:14 | -40.62948 | 175.00610 | 20272 ft | 478 kts | 36° |
| 2026-04-25 05:14 | -40.60253 | 175.03165 | 20271 ft | 478 kts | 37° |
| 2026-04-25 05:15 | -40.54963 | 175.08380 | 20270 ft | 478 kts | 39° |
| 2026-04-25 05:15 | -40.52333 | 175.11054 | 19329 ft | 472 kts | 39° |
| 2026-04-25 05:15 | -40.49772 | 175.13656 | 18059 ft | 461 kts | 39° |
| 2026-04-25 05:15 | -40.47256 | 175.16209 | 16544 ft | 453 kts | 39° |
| 2026-04-25 05:16 | -40.44756 | 175.18743 | 14099 ft | 455 kts | 38° |
| 2026-04-25 05:16 | -40.42254 | 175.21281 | 11638 ft | 453 kts | 38° |
| 2026-04-25 05:16 | -40.39759 | 175.23808 | 9329 ft | 452 kts | 38° |
| 2026-04-25 05:16 | -40.37212 | 175.26235 | 6498 ft | 449 kts | 34° |
| 2026-04-25 05:17 | -40.34962 | 175.28272 | 3983 ft | 389 kts | 33° |
| 2026-04-25 05:17 | -40.32708 | 175.30307 | 2217 ft | 393 kts | 33° |
| 2026-04-25 05:17 | -40.30663 | 175.32544 | 1583 ft | 387 kts | 49° |
| 2026-04-25 05:17 | -40.29371 | 175.35447 | 1227 ft | 355 kts | 69° |
| 2026-04-25 05:18 | -40.29160 | 175.38404 | 1385 ft | 306 kts | 101° |
| 2026-04-25 05:18 | -40.29536 | 175.40969 | 1613 ft | 268 kts | 91° |
| 2026-04-25 05:18 | -40.28998 | 175.43059 | 1590 ft | 230 kts | 51° |
| 2026-04-25 05:18 | -40.28005 | 175.44522 | 1598 ft | 203 kts | 46° |
| 2026-04-25 05:19 | -40.26999 | 175.45912 | 1622 ft | 236 kts | 42° |
| 2026-04-25 05:19 | -40.25370 | 175.46889 | 1615 ft | 288 kts | 4° |
| 2026-04-25 05:19 | -40.23601 | 175.46472 | 1421 ft | 226 kts | 323° |
| 2026-04-25 05:19 | -40.22685 | 175.45024 | 981 ft | 198 kts | 304° |
| 2026-04-25 05:20 | -40.21882 | 175.43422 | 752 ft | 221 kts | 295° |
| 2026-04-25 05:20 | -40.21384 | 175.41665 | 477 ft | 187 kts | 288° |
| 2026-04-25 05:20 | -40.21003 | 175.40232 | 205 ft | 155 kts | 288° |
| 2026-04-25 05:20 | -40.20682 | 175.39006 | 153 ft | 119 kts | 289° |
| 2026-04-25 05:21 | -40.20448 | 175.38122 | 153 ft | 82 kts | 290° |
| 2026-04-25 05:21 | -40.20346 | 175.37737 | 152 ft | 36 kts | 288° |
| 2026-04-25 05:21 | -40.20279 | 175.37478 | 148 ft | 19 kts | 290° |
| 2026-04-25 05:21 | -40.20218 | 175.37339 | 148 ft | 17 kts | 347° |
| 2026-04-25 05:22 | -40.20124 | 175.37404 | 150 ft | 15 kts | 42° |
| 2026-04-25 05:22 | -40.20050 | 175.37495 | 150 ft | 14 kts | 48° |
| 2026-04-25 05:22 | -40.20043 | 175.37610 | 150 ft | 13 kts | 108° |
| 2026-04-25 05:22 | -40.20071 | 175.37723 | 150 ft | 13 kts | 107° |
| 2026-04-25 05:23 | -40.20099 | 175.37832 | 151 ft | 13 kts | 109° |
| 2026-04-25 05:23 | -40.20127 | 175.37946 | 151 ft | 14 kts | 104° |
| 2026-04-25 05:23 | -40.20175 | 175.38051 | 151 ft | 15 kts | 150° |
| 2026-04-25 05:23 | -40.20265 | 175.38111 | 152 ft | 15 kts | 138° |
| 2026-04-25 05:24 | -40.20308 | 175.38235 | 152 ft | 16 kts | 109° |
| 2026-04-25 05:24 | -40.20345 | 175.38376 | 152 ft | 17 kts | 109° |
| 2026-04-25 05:24 | -40.20384 | 175.38527 | 152 ft | 18 kts | 109° |
| 2026-04-25 05:24 | -40.20428 | 175.38691 | 150 ft | 20 kts | 109° |
| 2026-04-25 05:25 | -40.20475 | 175.38868 | 152 ft | 20 kts | 109° |
| 2026-04-25 05:25 | -40.20452 | 175.38939 | 152 ft | 8 kts | 350° |
| 2026-04-25 05:25 | -40.20358 | 175.38915 | 152 ft | 17 kts | 348° |
| 2026-04-25 05:25 | -40.20268 | 175.38936 | 151 ft | 13 kts | 77° |
| 2026-04-25 05:26 | -40.20285 | 175.39002 | 152 ft | 7 kts | 228° |
| 2026-04-25 05:26 | -40.20288 | 175.38985 | 152 ft | 0 kts | 263° |